sensor_id;sensor_type;location;lat;lon;timestamp;temperature;humidity
69009;SHT31;56065;52.472;13.380;2023-03-14T00:00:32;13.55;78.96
69009;SHT31;56065;52.472;13.380;2023-03-14T00:02:58;13.55;78.98
69009;SHT31;56065;52.472;13.380;2023-03-14T00:05:23;13.66;78.68
69009;SHT31;56065;52.472;13.380;2023-03-14T00:07:48;13.58;78.91
69009;SHT31;56065;52.472;13.380;2023-03-14T00:10:15;13.53;79.01
69009;SHT31;56065;52.472;13.380;2023-03-14T00:12:41;13.55;79.00
69009;SHT31;56065;52.472;13.380;2023-03-14T00:15:07;13.48;79.11
69009;SHT31;56065;52.472;13.380;2023-03-14T00:17:34;13.30;79.65
69009;SHT31;56065;52.472;13.380;2023-03-14T00:20:00;13.30;79.97
69009;SHT31;56065;52.472;13.380;2023-03-14T00:22:37;13.20;80.22
69009;SHT31;56065;52.472;13.380;2023-03-14T00:25:03;13.23;80.25
69009;SHT31;56065;52.472;13.380;2023-03-14T00:27:29;13.21;80.30
69009;SHT31;56065;52.472;13.380;2023-03-14T00:29:54;13.17;80.70
69009;SHT31;56065;52.472;13.380;2023-03-14T00:32:20;13.04;81.03
69009;SHT31;56065;52.472;13.380;2023-03-14T00:34:45;12.99;81.12
69009;SHT31;56065;52.472;13.380;2023-03-14T00:37:10;13.02;81.21
69009;SHT31;56065;52.472;13.380;2023-03-14T00:39:36;13.08;80.98
69009;SHT31;56065;52.472;13.380;2023-03-14T00:42:01;12.93;81.54
69009;SHT31;56065;52.472;13.380;2023-03-14T00:44:26;13.02;81.41
69009;SHT31;56065;52.472;13.380;2023-03-14T00:46:52;12.86;81.84
69009;SHT31;56065;52.472;13.380;2023-03-14T00:49:17;12.86;82.19
69009;SHT31;56065;52.472;13.380;2023-03-14T00:51:43;12.89;82.06
69009;SHT31;56065;52.472;13.380;2023-03-14T00:54:08;12.90;81.99
69009;SHT31;56065;52.472;13.380;2023-03-14T00:56:33;12.94;81.80
69009;SHT31;56065;52.472;13.380;2023-03-14T00:58:59;12.83;82.39
69009;SHT31;56065;52.472;13.380;2023-03-14T01:01:24;12.82;82.29
69009;SHT31;56065;52.472;13.380;2023-03-14T01:03:54;12.77;82.45
69009;SHT31;56065;52.472;13.380;2023-03-14T01:06:25;12.87;82.05
69009;SHT31;56065;52.472;13.380;2023-03-14T01:08:52;12.86;81.97
69009;SHT31;56065;52.472;13.380;2023-03-14T01:11:29;12.72;82.74
69009;SHT31;56065;52.472;13.380;2023-03-14T01:13:55;12.62;83.09
69009;SHT31;56065;52.472;13.380;2023-03-14T01:16:22;12.69;82.69
69009;SHT31;56065;52.472;13.380;2023-03-14T01:18:48;12.65;82.92
69009;SHT31;56065;52.472;13.380;2023-03-14T01:21:20;12.66;82.93
69009;SHT31;56065;52.472;13.380;2023-03-14T01:23:46;12.56;83.25
69009;SHT31;56065;52.472;13.380;2023-03-14T01:26:13;12.53;83.35
69009;SHT31;56065;52.472;13.380;2023-03-14T01:28:40;12.49;83.40
69009;SHT31;56065;52.472;13.380;2023-03-14T01:31:07;12.50;83.45
69009;SHT31;56065;52.472;13.380;2023-03-14T01:33:32;12.49;83.43
69009;SHT31;56065;52.472;13.380;2023-03-14T01:35:58;12.50;83.63
69009;SHT31;56065;52.472;13.380;2023-03-14T01:38:23;12.55;83.66
69009;SHT31;56065;52.472;13.380;2023-03-14T01:40:49;12.43;83.80
69009;SHT31;56065;52.472;13.380;2023-03-14T01:43:19;12.62;83.41
69009;SHT31;56065;52.472;13.380;2023-03-14T01:51:00;12.67;83.15
69009;SHT31;56065;52.472;13.380;2023-03-14T01:53:27;12.67;82.84
69009;SHT31;56065;52.472;13.380;2023-03-14T01:55:54;12.73;82.77
69009;SHT31;56065;52.472;13.380;2023-03-14T01:58:23;12.41;83.72
69009;SHT31;56065;52.472;13.380;2023-03-14T02:00:50;12.36;83.94
69009;SHT31;56065;52.472;13.380;2023-03-14T02:03:17;12.48;83.65
69009;SHT31;56065;52.472;13.380;2023-03-14T02:05:46;12.43;83.79
69009;SHT31;56065;52.472;13.380;2023-03-14T02:08:15;12.48;83.46
69009;SHT31;56065;52.472;13.380;2023-03-14T02:10:47;12.48;83.50
69009;SHT31;56065;52.472;13.380;2023-03-14T02:13:15;12.57;83.05
69009;SHT31;56065;52.472;13.380;2023-03-14T02:15:41;12.59;82.93
69009;SHT31;56065;52.472;13.380;2023-03-14T02:18:07;12.45;83.48
69009;SHT31;56065;52.472;13.380;2023-03-14T02:23:11;12.50;83.12
69009;SHT31;56065;52.472;13.380;2023-03-14T02:25:48;12.41;83.29
69009;SHT31;56065;52.472;13.380;2023-03-14T02:28:15;12.50;83.14
69009;SHT31;56065;52.472;13.380;2023-03-14T02:30:41;12.41;83.39
69009;SHT31;56065;52.472;13.380;2023-03-14T02:33:19;12.36;83.52
69009;SHT31;56065;52.472;13.380;2023-03-14T02:39:00;12.39;83.37
69009;SHT31;56065;52.472;13.380;2023-03-14T02:41:29;12.38;83.38
69009;SHT31;56065;52.472;13.380;2023-03-14T02:43:55;12.36;83.55
69009;SHT31;56065;52.472;13.380;2023-03-14T02:46:20;12.48;82.94
69009;SHT31;56065;52.472;13.380;2023-03-14T02:48:56;12.49;82.85
69009;SHT31;56065;52.472;13.380;2023-03-14T02:51:23;12.41;82.98
69009;SHT31;56065;52.472;13.380;2023-03-14T02:53:49;12.34;83.32
69009;SHT31;56065;52.472;13.380;2023-03-14T02:56:14;12.34;83.18
69009;SHT31;56065;52.472;13.380;2023-03-14T02:58:39;12.25;83.26
69009;SHT31;56065;52.472;13.380;2023-03-14T03:01:05;12.24;83.52
69009;SHT31;56065;52.472;13.380;2023-03-14T03:03:31;12.29;83.34
69009;SHT31;56065;52.472;13.380;2023-03-14T03:05:57;12.38;82.99
69009;SHT31;56065;52.472;13.380;2023-03-14T03:08:25;12.32;83.17
69009;SHT31;56065;52.472;13.380;2023-03-14T03:10:51;12.34;83.07
69009;SHT31;56065;52.472;13.380;2023-03-14T03:13:17;12.35;82.84
69009;SHT31;56065;52.472;13.380;2023-03-14T03:15:43;12.25;83.25
69009;SHT31;56065;52.472;13.380;2023-03-14T03:18:09;12.26;83.12
69009;SHT31;56065;52.472;13.380;2023-03-14T03:20:34;12.21;83.38
69009;SHT31;56065;52.472;13.380;2023-03-14T03:23:00;12.25;83.22
69009;SHT31;56065;52.472;13.380;2023-03-14T03:25:26;12.22;83.37
69009;SHT31;56065;52.472;13.380;2023-03-14T03:27:52;12.21;83.13
69009;SHT31;56065;52.472;13.380;2023-03-14T03:30:18;12.02;83.89
69009;SHT31;56065;52.472;13.380;2023-03-14T03:32:44;12.04;83.65
69009;SHT31;56065;52.472;13.380;2023-03-14T03:35:09;12.14;83.31
69009;SHT31;56065;52.472;13.380;2023-03-14T03:37:35;12.11;83.47
69009;SHT31;56065;52.472;13.380;2023-03-14T03:40:00;12.11;83.18
69009;SHT31;56065;52.472;13.380;2023-03-14T03:42:27;11.93;83.89
69009;SHT31;56065;52.472;13.380;2023-03-14T03:44:52;12.01;83.56
69009;SHT31;56065;52.472;13.380;2023-03-14T03:47:18;11.97;83.75
69009;SHT31;56065;52.472;13.380;2023-03-14T03:49:43;11.95;83.61
69009;SHT31;56065;52.472;13.380;2023-03-14T03:52:09;11.93;83.56
69009;SHT31;56065;52.472;13.380;2023-03-14T03:54:34;11.94;83.54
69009;SHT31;56065;52.472;13.380;2023-03-14T03:57:00;11.93;83.59
69009;SHT31;56065;52.472;13.380;2023-03-14T03:59:25;11.99;83.25
69009;SHT31;56065;52.472;13.380;2023-03-14T04:01:50;11.99;83.12
69009;SHT31;56065;52.472;13.380;2023-03-14T04:04:16;12.02;83.08
69009;SHT31;56065;52.472;13.380;2023-03-14T04:06:41;12.04;82.88
69009;SHT31;56065;52.472;13.380;2023-03-14T04:09:08;12.06;82.94
69009;SHT31;56065;52.472;13.380;2023-03-14T04:11:33;12.06;82.77
69009;SHT31;56065;52.472;13.380;2023-03-14T04:13:59;12.06;82.62
69009;SHT31;56065;52.472;13.380;2023-03-14T04:16:25;12.10;82.54
69009;SHT31;56065;52.472;13.380;2023-03-14T04:18:51;11.94;82.87
69009;SHT31;56065;52.472;13.380;2023-03-14T04:21:17;11.91;82.90
69009;SHT31;56065;52.472;13.380;2023-03-14T04:23:43;11.85;83.02
69009;SHT31;56065;52.472;13.380;2023-03-14T04:26:08;12.08;82.50
69009;SHT31;56065;52.472;13.380;2023-03-14T04:28:33;12.04;82.48
69009;SHT31;56065;52.472;13.380;2023-03-14T04:31:07;11.99;82.32
69009;SHT31;56065;52.472;13.380;2023-03-14T04:33:32;11.99;82.44
69009;SHT31;56065;52.472;13.380;2023-03-14T04:35:57;12.01;82.24
69009;SHT31;56065;52.472;13.380;2023-03-14T04:38:23;12.12;81.97
69009;SHT31;56065;52.472;13.380;2023-03-14T04:40:48;12.12;81.94
69009;SHT31;56065;52.472;13.380;2023-03-14T04:43:14;12.08;81.84
69009;SHT31;56065;52.472;13.380;2023-03-14T04:45:42;12.08;81.80
69009;SHT31;56065;52.472;13.380;2023-03-14T04:48:08;12.02;81.91
69009;SHT31;56065;52.472;13.380;2023-03-14T04:50:34;12.02;81.93
69009;SHT31;56065;52.472;13.380;2023-03-14T04:52:59;11.97;81.86
69009;SHT31;56065;52.472;13.380;2023-03-14T04:55:24;11.84;82.23
69009;SHT31;56065;52.472;13.380;2023-03-14T04:57:50;11.95;82.06
69009;SHT31;56065;52.472;13.380;2023-03-14T05:00:15;11.97;81.81
69009;SHT31;56065;52.472;13.380;2023-03-14T05:02:43;11.95;81.96
69009;SHT31;56065;52.472;13.380;2023-03-14T05:05:09;11.97;81.80
69009;SHT31;56065;52.472;13.380;2023-03-14T05:07:34;12.02;81.59
69009;SHT31;56065;52.472;13.380;2023-03-14T05:10:00;11.99;81.65
69009;SHT31;56065;52.472;13.380;2023-03-14T05:12:25;12.04;81.43
69009;SHT31;56065;52.472;13.380;2023-03-14T05:14:50;11.90;81.55
69009;SHT31;56065;52.472;13.380;2023-03-14T05:17:16;11.99;81.28
69009;SHT31;56065;52.472;13.380;2023-03-14T05:19:41;11.94;81.25
69009;SHT31;56065;52.472;13.380;2023-03-14T05:22:07;11.85;81.25
69009;SHT31;56065;52.472;13.380;2023-03-14T05:24:32;11.93;81.19
69009;SHT31;56065;52.472;13.380;2023-03-14T05:26:58;11.84;81.19
69009;SHT31;56065;52.472;13.380;2023-03-14T05:29:23;11.88;81.12
69009;SHT31;56065;52.472;13.380;2023-03-14T05:31:49;11.94;80.97
69009;SHT31;56065;52.472;13.380;2023-03-14T05:34:14;12.02;80.69
69009;SHT31;56065;52.472;13.380;2023-03-14T05:36:39;11.85;80.63
69009;SHT31;56065;52.472;13.380;2023-03-14T05:39:05;11.99;80.46
69009;SHT31;56065;52.472;13.380;2023-03-14T05:41:30;12.01;80.14
69009;SHT31;56065;52.472;13.380;2023-03-14T05:43:55;11.95;80.13
69009;SHT31;56065;52.472;13.380;2023-03-14T05:46:21;11.90;80.03
69009;SHT31;56065;52.472;13.380;2023-03-14T05:48:46;11.93;79.98
69009;SHT31;56065;52.472;13.380;2023-03-14T05:51:11;11.97;79.84
69009;SHT31;56065;52.472;13.380;2023-03-14T05:53:37;12.01;79.89
69009;SHT31;56065;52.472;13.380;2023-03-14T05:56:02;12.10;79.51
69009;SHT31;56065;52.472;13.380;2023-03-14T05:58:28;12.04;79.37
69009;SHT31;56065;52.472;13.380;2023-03-14T06:00:53;12.06;79.03
69009;SHT31;56065;52.472;13.380;2023-03-14T06:03:18;12.05;79.21
69009;SHT31;56065;52.472;13.380;2023-03-14T06:05:44;12.02;79.19
69009;SHT31;56065;52.472;13.380;2023-03-14T06:08:09;12.08;78.71
69009;SHT31;56065;52.472;13.380;2023-03-14T06:10:36;12.12;78.64
69009;SHT31;56065;52.472;13.380;2023-03-14T06:13:01;12.14;78.54
69009;SHT31;56065;52.472;13.380;2023-03-14T06:15:27;12.32;78.23
69009;SHT31;56065;52.472;13.380;2023-03-14T06:17:54;12.14;78.35
69009;SHT31;56065;52.472;13.380;2023-03-14T06:20:20;12.26;77.99
69009;SHT31;56065;52.472;13.380;2023-03-14T06:22:45;12.15;78.27
69009;SHT31;56065;52.472;13.380;2023-03-14T06:25:10;12.29;78.31
69009;SHT31;56065;52.472;13.380;2023-03-14T06:27:36;12.15;78.10
69009;SHT31;56065;52.472;13.380;2023-03-14T06:30:01;12.31;77.72
69009;SHT31;56065;52.472;13.380;2023-03-14T06:32:27;12.32;77.52
69009;SHT31;56065;52.472;13.380;2023-03-14T06:34:52;12.48;77.38
69009;SHT31;56065;52.472;13.380;2023-03-14T06:37:18;12.36;77.28
69009;SHT31;56065;52.472;13.380;2023-03-14T06:39:43;12.42;77.19
69009;SHT31;56065;52.472;13.380;2023-03-14T06:42:09;12.43;76.92
69009;SHT31;56065;52.472;13.380;2023-03-14T06:44:35;12.67;76.78
69009;SHT31;56065;52.472;13.380;2023-03-14T06:47:00;12.65;76.04
69009;SHT31;56065;52.472;13.380;2023-03-14T06:49:26;12.60;76.43
69009;SHT31;56065;52.472;13.380;2023-03-14T06:51:51;12.67;75.97
69009;SHT31;56065;52.472;13.380;2023-03-14T06:54:16;12.63;76.20
69009;SHT31;56065;52.472;13.380;2023-03-14T06:56:42;12.70;76.06
69009;SHT31;56065;52.472;13.380;2023-03-14T06:59:07;13.28;75.27
69009;SHT31;56065;52.472;13.380;2023-03-14T07:01:33;13.21;74.68
69009;SHT31;56065;52.472;13.380;2023-03-14T07:04:00;13.43;74.41
69009;SHT31;56065;52.472;13.380;2023-03-14T07:06:25;13.44;74.01
69009;SHT31;56065;52.472;13.380;2023-03-14T07:08:51;13.62;73.66
69009;SHT31;56065;52.472;13.380;2023-03-14T07:11:16;13.66;73.69
69009;SHT31;56065;52.472;13.380;2023-03-14T07:13:41;13.53;73.52
69009;SHT31;56065;52.472;13.380;2023-03-14T07:16:07;13.48;73.69
69009;SHT31;56065;52.472;13.380;2023-03-14T07:18:33;13.43;73.56
69009;SHT31;56065;52.472;13.380;2023-03-14T07:20:59;13.21;74.40
69009;SHT31;56065;52.472;13.380;2023-03-14T07:23:24;13.27;74.18
69009;SHT31;56065;52.472;13.380;2023-03-14T07:25:50;13.53;73.81
69009;SHT31;56065;52.472;13.380;2023-03-14T07:28:16;13.62;73.49
69009;SHT31;56065;52.472;13.380;2023-03-14T07:30:42;14.37;72.07
69009;SHT31;56065;52.472;13.380;2023-03-14T07:33:07;14.46;71.29
69009;SHT31;56065;52.472;13.380;2023-03-14T07:35:33;14.91;70.00
69009;SHT31;56065;52.472;13.380;2023-03-14T07:37:58;14.95;69.81
69009;SHT31;56065;52.472;13.380;2023-03-14T07:40:24;14.73;70.19
69009;SHT31;56065;52.472;13.380;2023-03-14T07:42:49;14.47;70.83
69009;SHT31;56065;52.472;13.380;2023-03-14T07:45:15;14.75;70.24
69009;SHT31;56065;52.472;13.380;2023-03-14T07:47:40;14.57;70.29
69009;SHT31;56065;52.472;13.380;2023-03-14T07:50:06;14.67;70.23
69009;SHT31;56065;52.472;13.380;2023-03-14T07:52:32;14.41;71.05
69009;SHT31;56065;52.472;13.380;2023-03-14T07:54:58;14.48;71.15
69009;SHT31;56065;52.472;13.380;2023-03-14T07:57:23;14.53;70.50
69009;SHT31;56065;52.472;13.380;2023-03-14T07:59:49;15.28;69.29
69009;SHT31;56065;52.472;13.380;2023-03-14T08:02:15;15.01;69.45
69009;SHT31;56065;52.472;13.380;2023-03-14T08:04:41;15.16;69.65
69009;SHT31;56065;52.472;13.380;2023-03-14T08:07:06;14.80;69.51
69009;SHT31;56065;52.472;13.380;2023-03-14T08:09:32;14.94;69.99
69009;SHT31;56065;52.472;13.380;2023-03-14T08:11:57;14.81;70.05
69009;SHT31;56065;52.472;13.380;2023-03-14T08:14:22;14.84;70.18
69009;SHT31;56065;52.472;13.380;2023-03-14T08:16:49;14.98;69.67
69009;SHT31;56065;52.472;13.380;2023-03-14T08:19:15;14.95;69.80
69009;SHT31;56065;52.472;13.380;2023-03-14T08:21:41;14.64;70.29
69009;SHT31;56065;52.472;13.380;2023-03-14T08:24:06;14.47;70.91
69009;SHT31;56065;52.472;13.380;2023-03-14T08:26:32;14.23;71.18
69009;SHT31;56065;52.472;13.380;2023-03-14T08:28:57;13.96;71.85
69009;SHT31;56065;52.472;13.380;2023-03-14T08:31:22;13.98;72.37
69009;SHT31;56065;52.472;13.380;2023-03-14T08:33:48;13.85;71.96
69009;SHT31;56065;52.472;13.380;2023-03-14T08:36:13;13.98;72.32
69009;SHT31;56065;52.472;13.380;2023-03-14T08:38:39;13.93;72.27
69009;SHT31;56065;52.472;13.380;2023-03-14T08:41:08;13.99;71.95
69009;SHT31;56065;52.472;13.380;2023-03-14T08:43:33;14.27;71.49
69009;SHT31;56065;52.472;13.380;2023-03-14T08:46:00;14.19;71.44
69009;SHT31;56065;52.472;13.380;2023-03-14T08:48:26;13.90;72.16
69009;SHT31;56065;52.472;13.380;2023-03-14T08:50:51;14.08;71.43
69009;SHT31;56065;52.472;13.380;2023-03-14T08:53:17;13.83;72.10
69009;SHT31;56065;52.472;13.380;2023-03-14T08:55:43;13.98;72.09
69009;SHT31;56065;52.472;13.380;2023-03-14T08:58:08;13.95;71.84
69009;SHT31;56065;52.472;13.380;2023-03-14T09:00:34;14.22;71.74
69009;SHT31;56065;52.472;13.380;2023-03-14T09:02:59;13.96;71.55
69009;SHT31;56065;52.472;13.380;2023-03-14T09:05:25;14.17;71.40
69009;SHT31;56065;52.472;13.380;2023-03-14T09:07:50;14.41;70.87
69009;SHT31;56065;52.472;13.380;2023-03-14T09:10:15;14.81;70.92
69009;SHT31;56065;52.472;13.380;2023-03-14T09:12:41;15.15;69.38
69009;SHT31;56065;52.472;13.380;2023-03-14T09:15:07;15.70;68.10
69009;SHT31;56065;52.472;13.380;2023-03-14T09:17:32;17.60;64.54
69009;SHT31;56065;52.472;13.380;2023-03-14T09:19:58;18.87;60.59
69009;SHT31;56065;52.472;13.380;2023-03-14T09:22:23;19.21;59.34
69009;SHT31;56065;52.472;13.380;2023-03-14T09:24:48;21.27;55.28
69009;SHT31;56065;52.472;13.380;2023-03-14T09:27:14;21.43;54.49
69009;SHT31;56065;52.472;13.380;2023-03-14T09:29:39;22.39;52.09
69009;SHT31;56065;52.472;13.380;2023-03-14T09:32:05;22.90;51.24
69009;SHT31;56065;52.472;13.380;2023-03-14T09:34:30;24.67;48.57
69009;SHT31;56065;52.472;13.380;2023-03-14T09:36:56;24.15;48.13
69009;SHT31;56065;52.472;13.380;2023-03-14T09:39:22;25.24;46.66
69009;SHT31;56065;52.472;13.380;2023-03-14T09:41:49;23.92;48.75
69009;SHT31;56065;52.472;13.380;2023-03-14T09:46:43;20.43;54.00
69009;SHT31;56065;52.472;13.380;2023-03-14T09:51:50;18.37;58.10
69009;SHT31;56065;52.472;13.380;2023-03-14T09:56:57;17.91;59.68
69009;SHT31;56065;52.472;13.380;2023-03-14T09:59:22;16.87;61.42
69009;SHT31;56065;52.472;13.380;2023-03-14T10:01:48;16.83;64.39
69009;SHT31;56065;52.472;13.380;2023-03-14T10:04:15;17.27;62.38
69009;SHT31;56065;52.472;13.380;2023-03-14T10:06:42;17.22;61.11
69009;SHT31;56065;52.472;13.380;2023-03-14T10:09:17;16.52;61.67
69009;SHT31;56065;52.472;13.380;2023-03-14T10:11:44;16.10;62.98
69009;SHT31;56065;52.472;13.380;2023-03-14T10:14:11;15.79;63.67
69009;SHT31;56065;52.472;13.380;2023-03-14T10:16:46;15.74;63.67
69009;SHT31;56065;52.472;13.380;2023-03-14T10:19:16;15.65;64.21
69009;SHT31;56065;52.472;13.380;2023-03-14T10:21:52;15.74;64.21
69009;SHT31;56065;52.472;13.380;2023-03-14T10:24:21;15.77;63.65
69009;SHT31;56065;52.472;13.380;2023-03-14T10:26:49;15.43;64.10
69009;SHT31;56065;52.472;13.380;2023-03-14T10:29:17;15.43;64.66
69009;SHT31;56065;52.472;13.380;2023-03-14T10:32:10;15.50;64.02
69009;SHT31;56065;52.472;13.380;2023-03-14T10:34:43;15.16;63.96
69009;SHT31;56065;52.472;13.380;2023-03-14T10:37:21;15.08;64.27
69009;SHT31;56065;52.472;13.380;2023-03-14T10:39:53;15.08;64.53
69009;SHT31;56065;52.472;13.380;2023-03-14T10:42:25;15.19;64.45
69009;SHT31;56065;52.472;13.380;2023-03-14T10:44:59;15.19;64.28
69009;SHT31;56065;52.472;13.380;2023-03-14T10:47:26;15.21;64.48
69009;SHT31;56065;52.472;13.380;2023-03-14T10:49:53;15.02;64.71
69009;SHT31;56065;52.472;13.380;2023-03-14T10:52:27;15.02;64.89
69009;SHT31;56065;52.472;13.380;2023-03-14T10:55:02;15.16;64.88
69009;SHT31;56065;52.472;13.380;2023-03-14T10:57:28;15.05;65.13
69009;SHT31;56065;52.472;13.380;2023-03-14T10:59:55;15.32;64.92
69009;SHT31;56065;52.472;13.380;2023-03-14T11:07:39;15.14;65.01
69009;SHT31;56065;52.472;13.380;2023-03-14T11:15:30;16.17;64.44
69009;SHT31;56065;52.472;13.380;2023-03-14T11:18:20;16.58;62.98
69009;SHT31;56065;52.472;13.380;2023-03-14T11:20:59;16.69;63.12
69009;SHT31;56065;52.472;13.380;2023-03-14T11:26:50;16.77;62.14
69009;SHT31;56065;52.472;13.380;2023-03-14T11:29:41;16.86;61.95
69009;SHT31;56065;52.472;13.380;2023-03-14T11:32:13;16.86;62.09
69009;SHT31;56065;52.472;13.380;2023-03-14T11:34:50;16.73;62.31
69009;SHT31;56065;52.472;13.380;2023-03-14T11:37:36;16.68;62.53
69009;SHT31;56065;52.472;13.380;2023-03-14T11:42:48;15.91;64.45
69009;SHT31;56065;52.472;13.380;2023-03-14T11:45:20;15.65;67.34
69009;SHT31;56065;52.472;13.380;2023-03-14T11:48:07;15.71;67.52
69009;SHT31;56065;52.472;13.380;2023-03-14T11:50:36;15.47;67.27
69009;SHT31;56065;52.472;13.380;2023-03-14T11:53:09;15.14;67.88
69009;SHT31;56065;52.472;13.380;2023-03-14T11:55:39;14.96;67.76
69009;SHT31;56065;52.472;13.380;2023-03-14T11:58:17;14.95;68.54
69009;SHT31;56065;52.472;13.380;2023-03-14T12:00:46;15.25;68.11
69009;SHT31;56065;52.472;13.380;2023-03-14T12:03:27;15.50;67.77
69009;SHT31;56065;52.472;13.380;2023-03-14T12:06:09;15.29;68.01
69009;SHT31;56065;52.472;13.380;2023-03-14T12:08:52;14.87;68.89
69009;SHT31;56065;52.472;13.380;2023-03-14T12:11:31;14.96;69.33
69009;SHT31;56065;52.472;13.380;2023-03-14T12:13:58;15.19;68.53
69009;SHT31;56065;52.472;13.380;2023-03-14T12:16:36;15.18;68.36
69009;SHT31;56065;52.472;13.380;2023-03-14T12:21:52;15.34;68.37
69009;SHT31;56065;52.472;13.380;2023-03-14T12:24:20;15.24;68.84
69009;SHT31;56065;52.472;13.380;2023-03-14T12:26:55;15.28;68.78
69009;SHT31;56065;52.472;13.380;2023-03-14T12:29:21;15.25;69.23
69009;SHT31;56065;52.472;13.380;2023-03-14T12:32:20;15.12;69.20
69009;SHT31;56065;52.472;13.380;2023-03-14T12:34:43;15.14;69.63
69009;SHT31;56065;52.472;13.380;2023-03-14T12:37:19;15.18;70.72
69009;SHT31;56065;52.472;13.380;2023-03-14T12:45:34;15.49;72.12
69009;SHT31;56065;52.472;13.380;2023-03-14T12:50:44;15.35;71.58
69009;SHT31;56065;52.472;13.380;2023-03-14T12:53:19;15.19;70.76
69009;SHT31;56065;52.472;13.380;2023-03-14T12:58:26;15.01;69.97
69009;SHT31;56065;52.472;13.380;2023-03-14T13:01:05;15.06;70.69
69009;SHT31;56065;52.472;13.380;2023-03-14T13:12:00;13.62;79.39
69009;SHT31;56065;52.472;13.380;2023-03-14T13:14:30;13.53;81.32
69009;SHT31;56065;52.472;13.380;2023-03-14T13:16:59;13.57;81.35
69009;SHT31;56065;52.472;13.380;2023-03-14T13:19:27;13.55;80.83
69009;SHT31;56065;52.472;13.380;2023-03-14T13:22:20;13.37;80.72
69009;SHT31;56065;52.472;13.380;2023-03-14T13:24:46;13.51;81.45
69009;SHT31;56065;52.472;13.380;2023-03-14T13:27:19;13.68;81.77
69009;SHT31;56065;52.472;13.380;2023-03-14T13:29:48;14.12;81.21
69009;SHT31;56065;52.472;13.380;2023-03-14T13:32:19;14.36;80.16
69009;SHT31;56065;52.472;13.380;2023-03-14T13:34:45;15.45;79.18
69009;SHT31;56065;52.472;13.380;2023-03-14T13:37:23;15.90;74.06
69009;SHT31;56065;52.472;13.380;2023-03-14T13:39:50;16.25;73.36
69009;SHT31;56065;52.472;13.380;2023-03-14T13:42:16;16.72;73.26
69009;SHT31;56065;52.472;13.380;2023-03-14T13:44:42;16.61;70.73
69009;SHT31;56065;52.472;13.380;2023-03-14T13:47:18;16.21;68.35
69009;SHT31;56065;52.472;13.380;2023-03-14T13:49:44;15.98;69.61
69009;SHT31;56065;52.472;13.380;2023-03-14T13:54:54;15.82;71.23
69009;SHT31;56065;52.472;13.380;2023-03-14T13:57:20;15.84;70.52
69009;SHT31;56065;52.472;13.380;2023-03-14T14:00:04;15.74;70.91
69009;SHT31;56065;52.472;13.380;2023-03-14T14:02:35;16.01;70.62
69009;SHT31;56065;52.472;13.380;2023-03-14T14:05:01;15.76;70.39
69009;SHT31;56065;52.472;13.380;2023-03-14T14:07:27;16.01;70.70
69009;SHT31;56065;52.472;13.380;2023-03-14T14:09:54;16.00;70.27
69009;SHT31;56065;52.472;13.380;2023-03-14T14:20:06;16.45;69.03
69009;SHT31;56065;52.472;13.380;2023-03-14T14:22:32;16.52;68.05
69009;SHT31;56065;52.472;13.380;2023-03-14T14:24:59;16.22;68.82
69009;SHT31;56065;52.472;13.380;2023-03-14T14:27:39;16.14;68.85
69009;SHT31;56065;52.472;13.380;2023-03-14T14:32:43;15.62;70.73
69009;SHT31;56065;52.472;13.380;2023-03-14T14:35:17;15.56;70.82
69009;SHT31;56065;52.472;13.380;2023-03-14T14:37:47;15.69;70.52
69009;SHT31;56065;52.472;13.380;2023-03-14T14:40:19;15.71;69.43
69009;SHT31;56065;52.472;13.380;2023-03-14T14:42:47;15.62;68.78
69009;SHT31;56065;52.472;13.380;2023-03-14T14:45:16;15.73;68.70
69009;SHT31;56065;52.472;13.380;2023-03-14T14:47:58;15.66;68.62
69009;SHT31;56065;52.472;13.380;2023-03-14T14:50:39;15.83;68.51
69009;SHT31;56065;52.472;13.380;2023-03-14T14:55:59;15.32;68.98
69009;SHT31;56065;52.472;13.380;2023-03-14T14:58:33;15.29;69.74
69009;SHT31;56065;52.472;13.380;2023-03-14T15:01:05;15.34;69.77
69009;SHT31;56065;52.472;13.380;2023-03-14T15:03:33;15.19;69.31
69009;SHT31;56065;52.472;13.380;2023-03-14T15:05:59;15.25;69.63
69009;SHT31;56065;52.472;13.380;2023-03-14T15:08:26;15.05;70.01
69009;SHT31;56065;52.472;13.380;2023-03-14T15:10:52;15.09;70.35
69009;SHT31;56065;52.472;13.380;2023-03-14T15:13:18;14.81;70.91
69009;SHT31;56065;52.472;13.380;2023-03-14T15:15:44;14.88;71.02
69009;SHT31;56065;52.472;13.380;2023-03-14T15:18:18;14.08;79.77
69009;SHT31;56065;52.472;13.380;2023-03-14T15:20:44;13.71;78.68
69009;SHT31;56065;52.472;13.380;2023-03-14T15:23:15;12.87;76.73
69009;SHT31;56065;52.472;13.380;2023-03-14T15:25:41;12.12;78.30
69009;SHT31;56065;52.472;13.380;2023-03-14T15:28:33;11.37;79.96
69009;SHT31;56065;52.472;13.380;2023-03-14T15:30:59;10.94;81.42
69009;SHT31;56065;52.472;13.380;2023-03-14T15:33:27;10.71;81.49
69009;SHT31;56065;52.472;13.380;2023-03-14T15:35:53;10.45;81.71
69009;SHT31;56065;52.472;13.380;2023-03-14T15:38:21;10.16;80.73
69009;SHT31;56065;52.472;13.380;2023-03-14T15:40:48;9.94;81.72
69009;SHT31;56065;52.472;13.380;2023-03-14T15:43:14;9.81;82.57
69009;SHT31;56065;52.472;13.380;2023-03-14T15:45:39;9.62;81.58
69009;SHT31;56065;52.472;13.380;2023-03-14T15:48:09;9.41;82.01
69009;SHT31;56065;52.472;13.380;2023-03-14T15:50:37;9.21;82.26
69009;SHT31;56065;52.472;13.380;2023-03-14T15:53:02;9.07;82.54
69009;SHT31;56065;52.472;13.380;2023-03-14T15:55:28;8.90;82.79
69009;SHT31;56065;52.472;13.380;2023-03-14T15:57:53;8.79;82.14
69009;SHT31;56065;52.472;13.380;2023-03-14T16:00:20;8.53;82.09
69009;SHT31;56065;52.472;13.380;2023-03-14T16:02:47;8.38;82.14
69009;SHT31;56065;52.472;13.380;2023-03-14T16:05:13;8.02;81.61
69009;SHT31;56065;52.472;13.380;2023-03-14T16:07:38;8.02;82.18
69009;SHT31;56065;52.472;13.380;2023-03-14T16:10:05;7.85;82.34
69009;SHT31;56065;52.472;13.380;2023-03-14T16:12:32;7.70;81.29
69009;SHT31;56065;52.472;13.380;2023-03-14T16:14:57;7.36;80.84
69009;SHT31;56065;52.472;13.380;2023-03-14T16:17:23;7.12;80.68
69009;SHT31;56065;52.472;13.380;2023-03-14T16:19:48;6.92;81.66
69009;SHT31;56065;52.472;13.380;2023-03-14T16:22:14;6.68;82.22
69009;SHT31;56065;52.472;13.380;2023-03-14T16:24:39;6.44;81.84
69009;SHT31;56065;52.472;13.380;2023-03-14T16:27:04;6.30;81.87
69009;SHT31;56065;52.472;13.380;2023-03-14T16:29:30;6.24;81.20
69009;SHT31;56065;52.472;13.380;2023-03-14T16:31:55;6.03;81.93
69009;SHT31;56065;52.472;13.380;2023-03-14T16:34:21;5.83;81.46